Time;durP1;ratioP1;P1;durP2;ratioP2;P2;SDS_P1;SDS_P2;PMS_P1;PMS_P2;Temp;Humidity;BMP_temperature;BMP_pressure;BME280_temperature;BME280_humidity;BME280_pressure;Samples;Min_cycle;Max_cycle;Signal;HPM_P1;HPM_P2
2022/11/02 00:00:28;;;;;;;;;0.33;0.33;;;;;15.35;65.33;101155.34;5072659;28;45434;-63
2022/11/02 00:02:53;;;;;;;;;1.67;1.67;;;;;15.36;65.18;101159.69;5048140;28;45423;-64
2022/11/02 00:05:23;;;;;;;;;1.67;1.00;;;;;15.36;65.98;101162.34;5075467;28;45442;-62
2022/11/02 00:07:51;;;;;;;;;1.00;1.00;;;;;15.35;65.28;101163.28;5072013;28;45475;-63
2022/11/02 00:10:17;;;;;;;;;1.00;1.00;;;;;15.31;65.39;101165.22;5063008;28;45461;-64
2022/11/02 00:12:42;;;;;;;;;2.00;2.00;;;;;15.30;64.99;101160.84;5068147;28;45577;-63
2022/11/02 00:15:08;;;;;;;;;2.00;2.00;;;;;15.33;65.83;101158.06;5069338;28;46384;-63
2022/11/02 00:17:34;;;;;;;;;1.00;1.00;;;;;15.32;64.99;101164.28;5070449;28;45445;-63
2022/11/02 00:20:02;;;;;;;;;2.00;2.00;;;;;15.25;65.00;101162.84;5076418;28;45404;-61
2022/11/02 00:22:28;;;;;;;;;3.67;3.00;;;;;15.27;65.16;101168.09;5076165;28;45378;-62
2022/11/02 00:24:54;;;;;;;;;1.67;1.67;;;;;15.24;65.23;101164.66;5069910;28;45502;-62
2022/11/02 00:27:20;;;;;;;;;1.00;1.00;;;;;15.21;64.93;101170.09;5071097;28;45474;-64
2022/11/02 00:29:45;;;;;;;;;4.33;2.00;;;;;15.21;64.83;101177.19;5075692;28;45441;-62
2022/11/02 00:32:10;;;;;;;;;3.00;2.00;;;;;15.16;65.18;101177.38;5076317;28;45549;-64
2022/11/02 00:34:36;;;;;;;;;1.33;1.33;;;;;15.17;63.98;101188.84;5075168;28;45997;-62
2022/11/02 00:37:01;;;;;;;;;1.00;1.00;;;;;15.17;64.78;101181.75;5075388;28;45508;-63
2022/11/02 00:39:27;;;;;;;;;3.00;1.00;;;;;15.13;63.93;101184.63;5070398;28;45462;-62
2022/11/02 00:41:52;;;;;;;;;1.00;1.00;;;;;15.12;64.22;101194.34;5063931;28;47702;-64
2022/11/02 00:44:17;;;;;;;;;1.00;0.00;;;;;15.07;64.12;101193.72;5072864;28;49289;-61
2022/11/02 00:46:43;;;;;;;;;2.00;1.00;;;;;15.07;64.73;101193.72;5075349;28;45466;-64
2022/11/02 00:49:08;;;;;;;;;2.00;2.00;;;;;15.06;64.47;101191.97;5056207;28;45509;-62
2022/11/02 00:51:33;;;;;;;;;1.00;1.00;;;;;15.08;64.00;101197.22;5072204;28;45655;-63
2022/11/02 00:53:58;;;;;;;;;1.00;1.00;;;;;15.05;63.57;101198.19;5075323;28;46000;-63
2022/11/02 00:56:24;;;;;;;;;1.67;1.67;;;;;15.04;63.38;101207.06;5061570;28;55031;-63
2022/11/02 00:58:49;;;;;;;;;0.00;0.00;;;;;15.01;63.03;101207.19;5073343;28;49475;-63
2022/11/02 01:01:14;;;;;;;;;2.00;2.00;;;;;15.00;63.28;101210.78;5072573;28;47420;-66
2022/11/02 01:03:40;;;;;;;;;1.67;1.00;;;;;14.99;63.42;101214.34;5069533;28;46232;-62
2022/11/02 01:06:10;;;;;;;;;0.00;0.00;;;;;14.96;63.38;101218.03;5074985;28;45414;-63
2022/11/02 01:08:36;;;;;;;;;4.33;3.00;;;;;14.94;63.82;101217.22;5070672;28;45568;-64
2022/11/02 01:11:12;;;;;;;;;1.00;1.00;;;;;14.92;63.95;101213.78;5074660;28;45409;-62
2022/11/02 01:13:38;;;;;;;;;2.00;2.00;;;;;14.92;64.10;101228.81;5056122;28;46337;-63
2022/11/02 01:16:04;;;;;;;;;4.00;1.00;;;;;14.91;63.35;101227.06;5075491;28;45558;-61
2022/11/02 01:18:30;;;;;;;;;2.00;1.00;;;;;14.90;62.93;101225.34;5072822;28;45488;-63
2022/11/02 01:20:56;;;;;;;;;2.00;1.00;;;;;14.85;63.72;101222.03;5074788;28;45579;-64
2022/11/02 01:23:21;;;;;;;;;2.00;2.00;;;;;14.82;63.70;101224.81;5070428;28;45545;-64
2022/11/02 01:25:46;;;;;;;;;1.33;1.33;;;;;14.79;63.96;101228.47;5074608;28;45407;-63
2022/11/02 01:28:12;;;;;;;;;1.00;1.00;;;;;14.78;63.67;101226.75;5074923;28;45387;-64
2022/11/02 01:30:37;;;;;;;;;1.67;0.67;;;;;14.77;64.17;101235.59;5074481;28;47026;-62
2022/11/02 01:33:05;;;;;;;;;0.67;0.67;;;;;14.73;64.68;101240.19;5075380;28;45390;-64
2022/11/02 01:35:30;;;;;;;;;0.00;0.00;;;;;14.73;64.50;101232.25;5074649;28;45498;-63
2022/11/02 01:37:55;;;;;;;;;1.33;1.33;;;;;14.70;64.29;101224.44;5063088;28;45554;-64
2022/11/02 01:40:21;;;;;;;;;0.67;0.67;;;;;14.69;64.74;101233.28;5053993;28;45659;-62
2022/11/02 01:42:46;;;;;;;;;1.00;0.67;;;;;14.69;63.94;101225.34;5054130;28;46013;-64
2022/11/02 01:45:12;;;;;;;;;1.00;1.00;;;;;14.66;64.00;101230.75;5054462;28;45478;-64
2022/11/02 01:47:42;;;;;;;;;1.33;1.33;;;;;14.64;65.20;101231.75;5060381;28;45490;-63
2022/11/02 01:50:19;;;;;;;;;4.33;0.67;;;;;14.69;64.50;101237.72;5076105;28;45475;-63
2022/11/02 01:52:44;;;;;;;;;0.67;0.67;;;;;14.66;63.77;101243.16;5062165;28;47146;-64
2022/11/02 01:55:28;;;;;;;;;1.33;1.33;;;;;14.67;65.17;101245.75;5066761;28;45427;-64
2022/11/02 01:58:03;;;;;;;;;0.67;0.67;;;;;14.67;64.52;101245.75;5058800;28;45336;-64
2022/11/02 02:08:18;;;;;;;;;1.00;1.00;;;;;14.63;64.87;101275.06;4585187;25;47524;-64
2022/11/02 02:16:27;;;;;;;;;6.00;3.00;;;;;14.59;64.76;101271.69;3127110;25;46015;-65
2022/11/02 02:18:57;;;;;;;;;2.67;0.33;;;;;14.57;65.08;101278.81;5077417;28;45463;-62
2022/11/02 02:21:49;;;;;;;;;2.33;1.33;;;;;14.53;65.29;101274.56;5077203;27;45451;-63
2022/11/02 02:24:31;;;;;;;;;3.33;1.00;;;;;14.53;64.49;101275.44;5077270;28;46295;-62
2022/11/02 02:27:14;;;;;;;;;1.33;1.00;;;;;14.55;64.42;101272.72;5077313;27;45446;-63
2022/11/02 02:30:04;;;;;;;;;0.33;0.33;;;;;14.50;64.76;101274.66;5077277;28;45525;-62
2022/11/02 02:32:35;;;;;;;;;5.00;3.00;;;;;14.50;64.86;101282.59;5076840;27;45444;-65
2022/11/02 02:35:23;;;;;;;;;1.33;1.33;;;;;14.46;64.80;101287.16;5077342;28;45428;-63
2022/11/02 02:37:56;;;;;;;;;1.67;1.67;;;;;14.46;64.68;101287.16;5077253;28;45416;-64
2022/11/02 02:40:32;;;;;;;;;0.67;0.67;;;;;14.42;64.22;101282.03;5077428;28;45381;-66
2022/11/02 02:43:17;;;;;;;;;2.00;2.00;;;;;14.44;63.86;101296.94;5075167;27;45584;-64
2022/11/02 02:45:49;;;;;;;;;1.33;1.00;;;;;14.44;64.70;101285.50;5076451;27;45467;-63
2022/11/02 02:48:23;;;;;;;;;1.00;1.00;;;;;14.45;64.02;101300.44;5077229;28;45511;-64
2022/11/02 02:50:52;;;;;;;;;2.00;2.00;;;;;14.45;63.54;101295.16;5058054;28;45432;-63
2022/11/02 02:53:30;;;;;;;;;1.67;1.33;;;;;14.42;63.58;101297.91;5063170;28;45430;-65
2022/11/02 02:55:58;;;;;;;;;2.00;1.00;;;;;14.43;64.28;101291.72;5076898;28;46223;-63
2022/11/02 02:58:28;;;;;;;;;1.00;1.00;;;;;14.45;63.69;101292.50;5075358;28;45482;-62
2022/11/02 03:00:55;;;;;;;;;3.00;3.00;;;;;14.47;63.41;101291.50;5077200;28;45398;-62
2022/11/02 03:03:26;;;;;;;;;1.00;1.00;;;;;14.42;64.14;101297.91;5076930;28;45392;-64
2022/11/02 03:06:03;;;;;;;;;2.00;1.00;;;;;14.37;63.80;101290.16;5073489;27;46219;-62
2022/11/02 03:08:31;;;;;;;;;2.00;2.00;;;;;14.40;63.66;101305.06;5074838;27;45339;-63
2022/11/02 03:11:14;;;;;;;;;3.00;2.00;;;;;14.40;63.62;101303.28;5076842;28;45464;-65
2022/11/02 03:13:46;;;;;;;;;3.00;1.33;;;;;14.43;64.45;101310.25;5076392;28;45414;-64
2022/11/02 03:16:14;;;;;;;;;2.33;2.00;;;;;14.43;63.61;101310.25;5076556;28;46317;-62
2022/11/02 03:19:14;;;;;;;;;1.67;1.67;;;;;14.42;63.54;101314.66;5076118;28;45385;-63
2022/11/02 03:21:42;;;;;;;;;5.00;2.67;;;;;14.44;63.58;101310.16;5048107;28;45651;-64
2022/11/02 03:24:33;;;;;;;;;1.00;1.00;;;;;14.44;64.05;101317.25;5058328;28;45568;-63
2022/11/02 03:27:19;;;;;;;;;6.67;3.67;;;;;14.41;64.33;101315.59;5075412;28;46200;-64
2022/11/02 03:29:52;;;;;;;;;2.33;2.33;;;;;14.40;63.62;101310.34;5076651;28;45442;-64
2022/11/02 03:32:47;;;;;;;;;1.67;1.67;;;;;14.42;63.72;101313.81;5076499;28;45418;-64
2022/11/02 03:35:24;;;;;;;;;1.00;1.00;;;;;14.43;64.31;101313.75;5067851;28;45527;-62
2022/11/02 03:38:03;;;;;;;;;6.00;1.67;;;;;14.42;64.33;101322.59;5076305;28;46182;-63
2022/11/02 03:40:32;;;;;;;;;2.67;1.00;;;;;14.42;63.49;101330.53;5076299;28;45498;-62
2022/11/02 03:43:01;;;;;;;;;2.67;2.00;;;;;14.40;64.04;101339.47;5074679;28;45460;-63
2022/11/02 03:45:34;;;;;;;;;2.67;1.00;;;;;14.40;64.26;101336.81;5073934;28;45375;-63
2022/11/02 03:48:03;;;;;;;;;4.00;3.00;;;;;14.41;63.85;101347.34;5076297;28;45453;-62
2022/11/02 03:50:28;;;;;;;;;2.33;0.67;;;;;14.41;63.71;101349.16;5076294;28;45454;-62
2022/11/02 03:53:04;;;;;;;;;3.67;2.67;;;;;14.42;63.63;101348.22;5062080;28;45468;-63
2022/11/02 03:55:37;;;;;;;;;3.00;2.00;;;;;14.43;63.89;101357.88;5076325;28;45441;-64
2022/11/02 03:58:02;;;;;;;;;2.00;2.00;;;;;14.42;64.42;101362.28;5076069;28;46099;-62
2022/11/02 04:00:33;;;;;;;;;1.67;1.67;;;;;14.39;63.70;101362.41;5074308;28;45371;-63
2022/11/02 04:03:02;;;;;;;;;3.00;3.00;;;;;14.35;63.55;101363.47;5075005;28;45572;-62
2022/11/02 04:05:33;;;;;;;;;4.33;3.33;;;;;14.36;63.50;101370.47;5057384;28;45660;-61
2022/11/02 04:16:13;;;;;;;;;1.33;1.00;;;;;14.26;63.98;101393.78;5075498;28;45547;-62
2022/11/02 04:21:22;;;;;;;;;2.00;2.00;;;;;14.21;64.49;101387.81;5073750;28;45682;-61
2022/11/02 04:26:32;;;;;;;;;1.00;1.00;;;;;14.26;63.76;101399.06;5075804;28;45430;-63
2022/11/02 04:28:57;;;;;;;;;1.00;1.00;;;;;14.20;63.58;101394.03;5075399;28;48338;-63
2022/11/02 04:31:22;;;;;;;;;3.33;1.00;;;;;14.20;64.12;101399.31;5075340;28;45453;-62
2022/11/02 04:33:48;;;;;;;;;2.00;2.00;;;;;14.20;63.47;101403.75;5075527;28;45475;-64
2022/11/02 04:36:13;;;;;;;;;3.67;2.00;;;;;14.18;63.79;101395.84;5074167;28;45499;-62
2022/11/02 04:38:41;;;;;;;;;2.33;1.00;;;;;14.17;63.30;101403.88;5075257;28;46060;-64
2022/11/02 04:43:59;;;;;;;;;2.33;2.00;;;;;14.12;63.62;101407.53;5074970;28;45485;-63
2022/11/02 04:46:31;;;;;;;;;4.00;4.00;;;;;14.12;63.58;101406.66;5074967;28;45584;-63
2022/11/02 04:48:57;;;;;;;;;3.33;1.33;;;;;14.14;63.80;101421.56;5074982;28;45556;-62
2022/11/02 04:51:24;;;;;;;;;1.50;1.50;;;;;14.12;63.20;101420.75;5075523;28;45400;-61
2022/11/02 04:53:52;;;;;;;;;3.67;2.33;;;;;14.10;63.42;101427.03;5056959;28;45392;-61
2022/11/02 04:56:17;;;;;;;;;3.33;3.33;;;;;14.10;63.67;101422.63;5074475;28;45444;-62
2022/11/02 04:58:42;;;;;;;;;6.00;5.00;;;;;14.10;63.08;101424.38;5073076;28;45427;-63
2022/11/02 05:01:12;;;;;;;;;3.67;3.67;;;;;14.09;63.37;101427.94;5074088;28;45482;-63
2022/11/02 05:03:38;;;;;;;;;4.33;3.33;;;;;14.05;63.36;101434.25;5075238;28;45615;-63
2022/11/02 05:06:04;;;;;;;;;6.00;5.00;;;;;14.03;63.91;101436.13;5073221;28;45471;-62
2022/11/02 05:08:29;;;;;;;;;4.00;2.67;;;;;14.02;63.41;101442.31;5075158;28;45449;-63
2022/11/02 05:10:55;;;;;;;;;3.00;3.00;;;;;13.98;63.99;101441.56;5057609;28;45433;-63
2022/11/02 05:13:25;;;;;;;;;5.00;3.67;;;;;13.98;63.65;101441.56;5075696;28;45423;-64
2022/11/02 05:15:54;;;;;;;;;3.00;2.67;;;;;13.97;63.72;101442.50;5075504;28;45386;-63
2022/11/02 05:18:19;;;;;;;;;4.00;2.00;;;;;13.99;64.02;101442.41;5075362;28;46297;-63
2022/11/02 05:20:50;;;;;;;;;3.67;2.33;;;;;13.98;63.59;101449.50;5075351;28;45486;-61
2022/11/02 05:23:15;;;;;;;;;2.00;2.00;;;;;14.00;63.28;101449.47;5078883;28;45451;-63
2022/11/02 05:25:40;;;;;;;;;5.00;4.00;;;;;14.00;64.21;101449.47;5078197;28;48482;-61
2022/11/02 05:28:06;;;;;;;;;4.33;3.33;;;;;14.00;63.93;101452.97;5072433;28;53214;-63
2022/11/02 05:30:31;;;;;;;;;4.00;4.00;;;;;14.01;63.44;101457.31;5076840;28;45627;-61
2022/11/02 05:32:56;;;;;;;;;3.00;3.00;;;;;14.01;63.68;101459.97;5079176;28;45411;-63
2022/11/02 05:35:22;;;;;;;;;2.00;2.00;;;;;14.00;63.67;101468.84;5078599;28;45580;-63
2022/11/02 05:37:48;;;;;;;;;2.00;2.00;;;;;13.99;63.58;101459.16;5078648;28;46278;-63
2022/11/02 05:40:13;;;;;;;;;3.00;2.00;;;;;13.97;63.27;101476.00;5059939;28;45811;-64
2022/11/02 05:42:39;;;;;;;;;3.00;2.67;;;;;13.93;63.71;101473.44;5077912;28;45445;-63
2022/11/02 05:45:05;;;;;;;;;4.33;3.00;;;;;13.94;64.07;101482.25;5078157;28;45549;-62
2022/11/02 05:47:30;;;;;;;;;5.67;2.67;;;;;13.95;63.63;101477.84;5077923;28;45555;-63
2022/11/02 05:49:55;;;;;;;;;3.67;3.00;;;;;13.95;64.24;101478.69;5076470;28;45497;-63
2022/11/02 05:52:21;;;;;;;;;5.33;2.33;;;;;13.94;63.74;101484.88;5078150;28;45418;-63
2022/11/02 05:54:47;;;;;;;;;4.33;4.33;;;;;13.93;64.09;101477.88;5078283;28;45588;-63
2022/11/02 05:57:12;;;;;;;;;5.00;3.67;;;;;13.93;63.86;101475.25;5077981;28;45906;-61
2022/11/02 05:59:37;;;;;;;;;3.33;2.33;;;;;13.90;64.16;101476.22;5078083;28;45420;-63
2022/11/02 06:02:03;;;;;;;;;3.67;3.00;;;;;13.92;64.17;101476.16;5075994;28;45952;-63
2022/11/02 06:04:28;;;;;;;;;4.67;3.67;;;;;13.91;64.28;101477.06;5077741;28;45529;-63
2022/11/02 06:06:53;;;;;;;;;6.00;3.67;;;;;13.89;64.05;101473.63;5077408;28;55728;-63
2022/11/02 06:09:19;;;;;;;;;6.00;4.67;;;;;13.88;64.42;101471.91;5076489;28;45484;-63
2022/11/02 06:11:44;;;;;;;;;4.00;3.00;;;;;13.87;64.65;101471.03;5078065;28;45567;-64
2022/11/02 06:14:09;;;;;;;;;4.33;2.33;;;;;13.87;64.71;101483.41;5076919;27;45571;-62
2022/11/02 06:16:35;;;;;;;;;5.67;3.67;;;;;13.84;65.43;101481.72;5076529;28;46281;-63
2022/11/02 06:19:00;;;;;;;;;3.00;3.00;;;;;13.84;64.35;101487.00;5076008;28;46882;-63
2022/11/02 06:21:25;;;;;;;;;2.67;2.67;;;;;13.85;64.83;101483.44;5074974;28;45441;-63
2022/11/02 06:23:51;;;;;;;;;5.00;4.33;;;;;13.85;64.28;101483.44;5076761;28;45483;-63
2022/11/02 06:26:16;;;;;;;;;3.67;2.33;;;;;13.84;64.71;101492.31;5075798;28;46091;-63
2022/11/02 06:28:42;;;;;;;;;7.00;5.00;;;;;13.80;64.56;101495.09;5077422;28;48256;-64
2022/11/02 06:31:07;;;;;;;;;6.00;5.00;;;;;13.80;64.62;101501.25;5077569;28;45559;-64
2022/11/02 06:33:32;;;;;;;;;4.33;4.00;;;;;13.80;64.70;101505.66;5077282;28;45499;-64
2022/11/02 06:35:58;;;;;;;;;4.67;4.00;;;;;13.79;64.81;101506.59;5077260;28;45953;-65
2022/11/02 06:38:23;;;;;;;;;4.00;3.00;;;;;13.74;64.53;101506.75;5075043;28;45450;-63
2022/11/02 06:41:05;;;;;;;;;7.33;4.33;;;;;13.75;64.60;101513.75;5076943;28;45520;-64
2022/11/02 06:43:30;;;;;;;;;3.67;3.67;;;;;13.78;64.29;101510.13;5076437;28;45362;-66
2022/11/02 06:45:57;;;;;;;;;2.67;2.00;;;;;13.72;64.88;101510.34;5075803;28;46143;-64
2022/11/02 06:48:23;;;;;;;;;6.00;5.00;;;;;13.76;64.28;101504.06;5077214;28;45470;-67
2022/11/02 06:50:49;;;;;;;;;4.00;4.00;;;;;13.74;64.80;101516.47;5076777;28;45414;-64
2022/11/02 06:53:14;;;;;;;;;10.67;5.00;;;;;13.71;65.02;101517.44;5077028;28;45529;-66
2022/11/02 06:55:39;;;;;;;;;4.67;3.00;;;;;13.70;64.68;101520.97;5076801;28;45756;-66
2022/11/02 06:58:05;;;;;;;;;6.00;6.00;;;;;13.70;64.87;101526.25;5076521;28;45441;-70
2022/11/02 07:00:30;;;;;;;;;5.00;4.00;;;;;13.70;64.69;101532.44;5076961;28;45789;-63
2022/11/02 07:03:04;;;;;;;;;4.00;4.00;;;;;13.67;64.59;101529.91;5073096;28;45497;-64
2022/11/02 07:05:29;;;;;;;;;4.33;3.67;;;;;13.69;64.62;101532.47;5072692;28;46005;-65
2022/11/02 07:07:55;;;;;;;;;8.33;3.67;;;;;13.70;64.81;101532.44;5075196;28;48844;-63
2022/11/02 07:10:21;;;;;;;;;4.67;4.67;;;;;13.70;64.53;101536.84;5077171;28;45410;-67
2022/11/02 07:12:46;;;;;;;;;4.33;4.00;;;;;13.70;64.36;101536.84;5077379;27;45383;-63
2022/11/02 07:15:12;;;;;;;;;6.00;3.00;;;;;13.67;64.57;101534.28;5057870;28;45443;-67
2022/11/02 07:17:39;;;;;;;;;2.67;2.67;;;;;13.66;64.57;101533.44;5076568;28;45477;-63
2022/11/02 07:20:05;;;;;;;;;4.67;4.00;;;;;13.67;64.97;101534.28;5076713;28;45426;-66
2022/11/02 07:22:30;;;;;;;;;4.00;4.00;;;;;13.66;64.66;101536.09;5076559;28;45326;-66
2022/11/02 07:24:56;;;;;;;;;4.67;3.00;;;;;13.67;64.30;101536.94;5075716;28;56985;-63
2022/11/02 07:27:21;;;;;;;;;6.67;5.33;;;;;13.68;64.59;101534.25;5076430;28;45370;-67
2022/11/02 07:29:46;;;;;;;;;6.00;5.00;;;;;13.64;64.38;101544.97;5076625;28;45520;-66
2022/11/02 07:32:12;;;;;;;;;4.67;4.67;;;;;13.67;64.81;101547.50;5076332;28;45585;-68
2022/11/02 07:34:37;;;;;;;;;4.00;4.00;;;;;13.71;64.69;101554.44;5076189;28;46944;-63
2022/11/02 07:37:02;;;;;;;;;4.67;4.67;;;;;13.67;64.82;101553.69;5076054;28;45461;-65
2022/11/02 07:39:28;;;;;;;;;6.67;5.67;;;;;13.72;64.97;101555.31;5076589;28;45359;-64
2022/11/02 07:41:53;;;;;;;;;8.33;6.00;;;;;13.73;64.66;101560.56;5076317;28;45569;-67
2022/11/02 07:44:18;;;;;;;;;7.67;6.00;;;;;13.76;64.84;101567.53;5075403;28;45457;-68
2022/11/02 07:46:44;;;;;;;;;5.33;4.00;;;;;13.78;65.05;101555.09;5076232;28;45457;-63
2022/11/02 07:49:09;;;;;;;;;4.00;3.33;;;;;13.79;64.20;101551.56;5075979;28;45673;-68
2022/11/02 07:51:34;;;;;;;;;5.67;3.33;;;;;13.80;64.46;101550.63;5076358;28;45655;-65
2022/11/02 07:54:01;;;;;;;;;4.00;3.00;;;;;13.82;64.49;101552.31;5075944;28;46050;-67
2022/11/02 07:56:26;;;;;;;;;5.00;5.00;;;;;13.80;64.34;101554.13;5076162;28;45594;-63
2022/11/02 07:58:52;;;;;;;;;8.67;6.00;;;;;13.84;64.72;101562.84;5076065;28;45452;-67
2022/11/02 08:01:17;;;;;;;;;5.33;4.00;;;;;13.84;64.75;101565.47;5076044;28;45454;-64
2022/11/02 08:03:42;;;;;;;;;4.00;4.00;;;;;13.81;64.88;101568.19;5075800;28;46237;-66
2022/11/02 08:06:08;;;;;;;;;7.33;6.33;;;;;13.79;65.24;101568.28;5060287;28;45430;-66
2022/11/02 08:08:34;;;;;;;;;5.67;5.00;;;;;13.84;64.70;101581.34;5075873;28;45426;-65
2022/11/02 08:11:05;;;;;;;;;7.33;5.67;;;;;13.86;65.25;101577.75;5075806;28;45387;-65
2022/11/02 08:13:31;;;;;;;;;5.33;4.67;;;;;13.85;65.64;101565.41;5076189;27;45444;-63
2022/11/02 08:15:57;;;;;;;;;7.00;6.67;;;;;13.86;64.69;101567.16;5075685;28;45449;-64
2022/11/02 08:18:24;;;;;;;;;8.67;7.33;;;;;13.85;65.48;101568.06;5075417;28;45382;-65
2022/11/02 08:20:50;;;;;;;;;7.67;7.67;;;;;13.90;65.33;101566.13;5075567;28;45572;-66
2022/11/02 08:23:18;;;;;;;;;5.00;5.00;;;;;13.95;64.91;101567.78;5075368;28;45442;-64
2022/11/02 08:25:44;;;;;;;;;6.33;5.00;;;;;13.96;65.28;101564.19;5075429;28;45430;-64
2022/11/02 08:28:16;;;;;;;;;6.33;5.00;;;;;13.99;64.82;101574.66;5057290;28;45527;-64
2022/11/02 08:30:41;;;;;;;;;8.67;8.33;;;;;14.01;65.12;101572.84;5075352;28;45573;-66
2022/11/02 08:33:10;;;;;;;;;6.67;3.67;;;;;14.01;65.21;101572.84;5075185;28;45404;-63
2022/11/02 08:35:36;;;;;;;;;4.00;4.00;;;;;14.03;65.57;101576.31;5075165;28;45570;-67
2022/11/02 08:38:02;;;;;;;;;6.00;5.33;;;;;13.99;65.57;101579.94;5075715;28;45394;-65
2022/11/02 08:40:28;;;;;;;;;6.67;3.00;;;;;13.95;65.68;101579.19;5075339;28;45367;-67
2022/11/02 08:43:02;;;;;;;;;6.00;6.00;;;;;13.97;66.31;101577.38;5074365;28;45483;-65
2022/11/02 08:45:28;;;;;;;;;8.67;6.00;;;;;13.99;65.62;101578.16;5075219;28;45433;-66
2022/11/02 08:47:54;;;;;;;;;6.67;5.00;;;;;14.00;65.95;101571.97;5075345;28;45431;-65
2022/11/02 08:50:20;;;;;;;;;8.67;7.67;;;;;14.00;65.70;101576.41;5075062;28;45385;-64
2022/11/02 08:52:46;;;;;;;;;8.00;6.67;;;;;14.04;65.99;101572.72;5074890;28;46270;-66
2022/11/02 08:55:11;;;;;;;;;7.67;7.67;;;;;14.13;65.36;101582.97;5075176;28;54780;-65
2022/11/02 08:57:47;;;;;;;;;7.00;6.00;;;;;14.15;65.37;101574.06;5060593;28;45400;-66
2022/11/02 09:00:14;;;;;;;;;6.67;4.67;;;;;14.22;65.45;101577.38;5078876;28;45502;-64
2022/11/02 09:02:39;;;;;;;;;3.33;3.00;;;;;14.25;64.44;101579.06;5078561;28;46232;-64
2022/11/02 09:05:05;;;;;;;;;9.67;6.33;;;;;14.25;64.72;101582.56;5078553;28;45469;-64
2022/11/02 09:07:30;;;;;;;;;7.33;6.00;;;;;14.28;64.44;101581.59;5078837;28;45472;-66
2022/11/02 09:09:56;;;;;;;;;18.33;13.67;;;;;14.32;64.40;101581.44;5078823;28;45433;-63
2022/11/02 09:12:21;;;;;;;;;5.67;5.67;;;;;14.35;63.62;101573.41;5078931;27;46560;-65
2022/11/02 09:14:46;;;;;;;;;6.00;6.00;;;;;14.35;64.45;101578.69;5078500;28;45540;-67
2022/11/02 09:17:11;;;;;;;;;5.67;5.67;;;;;14.41;64.42;101574.97;5078504;28;45901;-64
2022/11/02 09:19:37;;;;;;;;;6.67;5.00;;;;;14.43;64.50;101580.22;5078540;28;45339;-68
2022/11/02 09:22:02;;;;;;;;;4.67;4.67;;;;;14.47;64.28;101572.09;5078125;28;53081;-66
2022/11/02 09:24:27;;;;;;;;;6.33;4.00;;;;;14.50;63.25;101561.38;5078235;28;45537;-65
2022/11/02 09:26:53;;;;;;;;;4.67;4.00;;;;;14.50;63.99;101565.81;5078249;28;45423;-66
2022/11/02 09:29:18;;;;;;;;;6.67;4.00;;;;;14.53;63.09;101560.44;5060517;28;45584;-67
2022/11/02 09:31:43;;;;;;;;;6.00;5.67;;;;;14.54;63.33;101562.19;5077674;28;63087;-64
2022/11/02 09:34:09;;;;;;;;;5.00;5.00;;;;;14.54;64.08;101560.41;5077923;28;46324;-62
2022/11/02 09:36:34;;;;;;;;;5.00;3.33;;;;;14.57;63.05;101565.56;5078396;28;45482;-63
2022/11/02 09:38:59;;;;;;;;;6.00;5.67;;;;;14.57;63.36;101556.78;5078066;28;45335;-65
2022/11/02 09:41:42;;;;;;;;;3.33;3.00;;;;;14.58;63.53;101559.34;5076897;28;50004;-63
2022/11/02 09:44:17;;;;;;;;;3.67;3.33;;;;;14.64;63.56;101563.59;5078204;28;45409;-67
2022/11/02 09:46:45;;;;;;;;;9.67;6.67;;;;;14.65;63.20;101557.34;5078158;28;45412;-64
2022/11/02 09:49:13;;;;;;;;;7.67;6.00;;;;;14.67;63.25;101558.16;5077991;28;45650;-64
2022/11/02 09:51:46;;;;;;;;;3.00;3.00;;;;;14.65;63.34;101557.34;5077672;28;45501;-62
2022/11/02 09:54:44;;;;;;;;;5.33;5.33;;;;;14.65;63.24;101561.78;5059017;28;45467;-62
2022/11/02 09:57:20;;;;;;;;;4.67;4.33;;;;;14.64;62.81;101560.03;5077872;28;45417;-63
2022/11/02 09:59:46;;;;;;;;;6.00;5.00;;;;;14.66;62.76;101555.56;5077885;28;45541;-65
2022/11/02 10:02:49;;;;;;;;;6.33;5.00;;;;;14.63;62.87;101550.38;5077346;28;45602;-63
2022/11/02 10:05:29;;;;;;;;;6.67;4.00;;;;;14.67;62.37;101551.97;5077901;28;45481;-64
2022/11/02 10:07:57;;;;;;;;;4.67;4.67;;;;;14.72;62.67;101561.50;5077213;28;45489;-62
2022/11/02 10:10:56;;;;;;;;;4.33;4.33;;;;;14.73;63.14;101557.94;5059631;28;45497;-66
2022/11/02 10:13:37;;;;;;;;;6.33;6.33;;;;;14.75;62.84;101558.75;5077189;27;45562;-66
2022/11/02 10:16:10;;;;;;;;;5.33;5.00;;;;;14.80;63.39;101555.91;5077168;28;45395;-66
2022/11/02 10:18:39;;;;;;;;;6.67;5.00;;;;;14.85;63.42;101558.38;5077665;28;45473;-65
2022/11/02 10:21:12;;;;;;;;;8.00;7.00;;;;;14.88;62.86;101552.97;5077406;28;45403;-63
2022/11/02 10:23:48;;;;;;;;;8.00;6.67;;;;;14.93;63.03;101551.00;5063937;28;46070;-67
2022/11/02 10:26:20;;;;;;;;;3.00;3.00;;;;;14.94;62.16;101550.09;5077370;28;45546;-64
2022/11/02 10:28:49;;;;;;;;;11.00;7.00;;;;;14.95;61.40;101557.13;5077317;28;45415;-65
2022/11/02 10:31:35;;;;;;;;;3.00;3.00;;;;;14.93;61.78;101553.66;5077614;28;45437;-63
2022/11/02 10:34:19;;;;;;;;;5.67;4.00;;;;;14.93;61.77;101548.38;5076714;28;45452;-63
2022/11/02 10:36:55;;;;;;;;;2.33;2.33;;;;;14.95;61.32;101552.69;5058555;28;45429;-64
2022/11/02 10:39:57;;;;;;;;;2.00;2.00;;;;;14.94;60.53;101560.72;5077645;28;45476;-62
2022/11/02 10:42:25;;;;;;;;;5.67;5.33;;;;;14.93;61.19;101554.53;5077133;28;45449;-66
2022/11/02 10:45:18;;;;;;;;;5.00;5.00;;;;;14.93;60.57;101551.88;5076910;28;46154;-66
2022/11/02 10:47:56;;;;;;;;;3.33;3.00;;;;;14.96;60.96;101550.88;5058471;28;45472;-65
2022/11/02 10:50:27;;;;;;;;;2.00;2.00;;;;;14.99;61.38;101549.00;5077223;28;45525;-65
2022/11/02 10:52:53;;;;;;;;;3.00;3.00;;;;;15.00;60.59;101547.22;5076834;28;45605;-65
2022/11/02 10:55:28;;;;;;;;;3.00;3.00;;;;;14.98;61.65;101546.41;5058617;28;46876;-66
2022/11/02 10:57:57;;;;;;;;;3.67;3.00;;;;;15.01;60.46;101544.50;5075184;28;45476;-59
2022/11/02 11:00:24;;;;;;;;;2.67;2.00;;;;;15.05;60.71;101539.09;5075531;28;45430;-60
2022/11/02 11:03:13;;;;;;;;;6.00;4.67;;;;;15.09;61.20;101543.34;5076951;28;45430;-68
2022/11/02 11:06:03;;;;;;;;;4.00;4.00;;;;;15.11;61.42;101547.66;5073356;28;46156;-63
2022/11/02 11:08:38;;;;;;;;;2.33;2.00;;;;;15.15;59.89;101540.44;5076153;28;45497;-64
2022/11/02 11:11:18;;;;;;;;;5.00;5.00;;;;;15.18;60.56;101532.41;5076210;28;45431;-65
2022/11/02 11:14:06;;;;;;;;;8.67;6.00;;;;;15.19;60.47;101540.28;5058853;28;45494;-65
2022/11/02 11:16:36;;;;;;;;;11.00;8.67;;;;;15.23;61.53;101535.69;5075220;28;45486;-63
2022/11/02 11:19:04;;;;;;;;;6.67;6.67;;;;;15.22;61.42;101536.63;5057051;28;45384;-63
2022/11/02 11:21:40;;;;;;;;;10.33;7.67;;;;;15.22;60.72;101526.03;5076303;28;45457;-66
2022/11/02 11:24:21;;;;;;;;;3.67;3.67;;;;;15.27;59.58;101525.84;5076396;28;45440;-61
2022/11/02 11:27:14;;;;;;;;;5.00;4.00;;;;;15.27;60.38;101526.72;5075918;28;46327;-64
2022/11/02 11:29:46;;;;;;;;;6.33;4.33;;;;;15.26;59.52;101519.69;5076356;28;45498;-60
2022/11/02 11:32:21;;;;;;;;;6.33;5.00;;;;;15.28;60.99;101524.94;5076329;28;45429;-63
2022/11/02 11:35:02;;;;;;;;;6.67;5.00;;;;;15.29;60.13;101524.03;5075417;28;45375;-61
2022/11/02 11:37:28;;;;;;;;;3.33;3.33;;;;;15.28;59.92;101517.81;5074579;28;45486;-61
2022/11/02 11:40:15;;;;;;;;;5.00;5.00;;;;;15.32;60.48;101516.78;5076191;28;45449;-63
2022/11/02 11:42:41;;;;;;;;;6.00;5.00;;;;;15.39;60.66;101520.03;5057991;28;45431;-67
2022/11/02 11:45:21;;;;;;;;;6.33;5.33;;;;;15.42;60.43;101518.16;5076033;28;45560;-65
2022/11/02 11:47:51;;;;;;;;;6.67;6.00;;;;;15.42;60.20;101501.34;5075819;28;45489;-61
2022/11/02 11:50:17;;;;;;;;;11.67;10.00;;;;;15.44;59.48;101497.72;5075603;28;45433;-65
2022/11/02 11:52:43;;;;;;;;;8.00;5.33;;;;;15.48;59.48;101501.13;5075728;28;45435;-62
2022/11/02 11:55:25;;;;;;;;;6.00;5.00;;;;;15.54;59.37;101492.06;5075080;28;45527;-62
2022/11/02 11:58:05;;;;;;;;;8.00;6.00;;;;;15.55;59.39;101484.03;5073302;28;46227;-66
2022/11/02 12:00:31;;;;;;;;;5.33;5.33;;;;;15.58;58.79;101493.63;5074381;28;45457;-65
2022/11/02 12:03:05;;;;;;;;;4.00;4.00;;;;;15.60;58.76;101489.13;5075279;28;45389;-66
2022/11/02 12:05:55;;;;;;;;;3.00;3.00;;;;;15.59;59.75;101487.44;5075694;28;45614;-62